Qashlu, Yemen
Current Conditions -  °F | °C
As of 3:00 AM on Saturday 25 Oct 2014 (Local Time) from OYSQ Reporting Station
Scattered Clouds Scattered Clouds  
Wind Chill: 75°   Ceiling: Unl
Heat Index: 75°   Visibility: 6mi
Dew Point: 68°   Wind: 0mph
Humidity: 78%   Direction: NA
Pressure: 29.8"   Gusts: NA
Location:  12.61°N, 53.86°E
Report Text: OYSQ 250000Z 00000KT 9999 SCT018 24/20 Q1009
Loading
Personal Weather Stations






























Interactive Weather Map
Tropical Storm Tracking
New forecast layout! Learn more

10-Day Weather Forecast

Advertisements
Track Severe Weather on mobile